createdAt,value
2023-06-03T00:00:23.943Z,1.20
2023-06-03T00:03:11.680Z,1.00
2023-06-03T00:05:39.549Z,1.17
2023-06-03T00:08:07.284Z,1.00
2023-06-03T00:10:34.633Z,1.08
2023-06-03T00:13:02.374Z,0.95
2023-06-03T00:15:37.535Z,1.75
2023-06-03T00:18:05.252Z,0.90
2023-06-03T00:20:34.621Z,1.17
2023-06-03T00:23:02.260Z,1.15
2023-06-03T00:25:29.610Z,0.93
2023-06-03T00:27:57.219Z,1.10
2023-06-03T00:30:24.560Z,1.15
2023-06-03T00:32:52.204Z,1.33
2023-06-03T00:35:37.850Z,1.23
2023-06-03T00:38:05.435Z,1.17
2023-06-03T00:40:33.352Z,1.38
2023-06-03T00:43:01.069Z,1.35
2023-06-03T00:45:28.439Z,1.00
2023-06-03T00:47:56.215Z,1.30
2023-06-03T00:50:24.472Z,1.10
2023-06-03T00:52:52.781Z,1.20
2023-06-03T00:55:20.233Z,1.08
2023-06-03T00:57:48.122Z,1.00
2023-06-03T01:00:15.452Z,1.58
2023-06-03T01:02:43.237Z,1.55
2023-06-03T01:05:11.877Z,1.10
2023-06-03T01:07:58.156Z,1.23
2023-06-03T01:10:31.723Z,1.35
2023-06-03T01:13:19.581Z,1.38
2023-06-03T01:15:48.824Z,1.45
2023-06-03T01:18:16.649Z,1.73
2023-06-03T01:20:44.066Z,1.83
2023-06-03T01:23:21.993Z,1.33
2023-06-03T01:25:49.425Z,1.70
2023-06-03T01:28:17.164Z,1.67
2023-06-03T01:30:44.907Z,1.60
2023-06-03T01:33:12.981Z,1.45
2023-06-03T01:35:40.422Z,1.30
2023-06-03T01:38:08.590Z,1.63
2023-06-03T01:40:36.367Z,1.30
2023-06-03T01:43:04.126Z,1.52
2023-06-03T01:45:31.616Z,1.48
2023-06-03T01:48:05.599Z,1.58
2023-06-03T01:50:33.148Z,1.20
2023-06-03T01:53:00.876Z,1.20
2023-06-03T01:55:28.197Z,1.08
2023-06-03T01:57:55.781Z,1.38
2023-06-03T02:00:23.090Z,1.50
2023-06-03T02:02:50.760Z,1.73
2023-06-03T02:05:18.214Z,1.13
2023-06-03T02:07:46.069Z,1.25
2023-06-03T02:10:13.545Z,1.38
2023-06-03T02:12:41.361Z,1.20
2023-06-03T02:15:08.886Z,1.20
2023-06-03T02:17:42.276Z,1.20
2023-06-03T02:20:10.846Z,1.30
2023-06-03T02:22:38.489Z,1.23
2023-06-03T02:25:06.573Z,1.48
2023-06-03T02:27:34.249Z,1.15
2023-06-03T02:30:01.777Z,1.38
2023-06-03T02:32:29.643Z,1.27
2023-06-03T02:34:57.064Z,1.48
2023-06-03T02:37:24.723Z,0.93
2023-06-03T02:39:52.146Z,1.75
2023-06-03T02:42:20.150Z,1.38
2023-06-03T02:44:47.499Z,1.17
2023-06-03T02:47:15.145Z,1.13
2023-06-03T02:49:42.612Z,1.10
2023-06-03T02:52:10.218Z,1.33
2023-06-03T02:54:37.554Z,1.10
2023-06-03T02:57:05.333Z,1.20
2023-06-03T02:59:32.779Z,1.20
2023-06-03T03:02:00.597Z,1.40
2023-06-03T03:04:39.666Z,1.10
2023-06-03T03:07:07.476Z,1.45
2023-06-03T03:09:34.853Z,1.20
2023-06-03T03:12:02.631Z,1.33
2023-06-03T03:14:30.069Z,1.23
2023-06-03T03:16:57.728Z,1.10
2023-06-03T03:19:25.175Z,0.93
2023-06-03T03:21:53.177Z,1.20
2023-06-03T03:24:24.927Z,1.52
2023-06-03T03:26:52.671Z,1.75
2023-06-03T03:29:20.089Z,1.05
2023-06-03T03:31:50.361Z,1.00
2023-06-03T03:34:21.291Z,1.30
2023-06-03T03:36:48.980Z,0.90
2023-06-03T03:39:16.308Z,1.40
2023-06-03T03:41:44.165Z,0.80
2023-06-03T03:44:12.491Z,1.35
2023-06-03T03:46:52.583Z,1.02
2023-06-03T03:49:26.046Z,1.10
2023-06-03T03:51:53.982Z,0.93
2023-06-03T03:54:24.909Z,1.35
2023-06-03T03:56:56.344Z,1.03
2023-06-03T03:59:25.425Z,0.95
2023-06-03T04:01:53.151Z,1.02
2023-06-03T04:04:35.508Z,1.20
2023-06-03T04:07:03.534Z,1.27
2023-06-03T04:09:31.080Z,1.27
2023-06-03T04:11:58.708Z,1.17
2023-06-03T04:14:32.171Z,1.02
2023-06-03T04:17:00.899Z,0.82
2023-06-03T04:19:35.136Z,0.77
2023-06-03T04:22:03.389Z,1.08
2023-06-03T04:24:30.737Z,1.80
2023-06-03T04:26:58.368Z,0.98
2023-06-03T04:29:25.801Z,1.23
2023-06-03T04:31:53.460Z,1.50
2023-06-03T04:34:20.847Z,1.05
2023-06-03T04:36:48.550Z,0.95
2023-06-03T04:39:16.873Z,1.13
2023-06-03T04:41:46.798Z,1.00
2023-06-03T04:44:14.163Z,1.10
2023-06-03T04:46:41.906Z,1.00
2023-06-03T04:49:09.334Z,0.77
2023-06-03T04:51:36.946Z,0.88
2023-06-03T04:54:04.346Z,1.20
2023-06-03T04:56:32.036Z,1.08
2023-06-03T04:59:00.793Z,1.10
2023-06-03T05:01:28.584Z,1.25
2023-06-03T05:03:56.091Z,0.90
2023-06-03T05:06:23.927Z,0.98
2023-06-03T05:08:51.640Z,0.80
2023-06-03T05:11:19.784Z,0.75
2023-06-03T05:13:47.260Z,0.98
2023-06-03T05:16:14.931Z,1.30
2023-06-03T05:18:42.281Z,0.90
2023-06-03T05:21:10.566Z,0.63
2023-06-03T05:23:38.030Z,0.80
2023-06-03T05:26:05.669Z,0.57
2023-06-03T05:31:36.893Z,1.10
2023-06-03T05:34:04.425Z,0.98
2023-06-03T05:36:34.889Z,0.90
2023-06-03T05:39:02.537Z,1.00
2023-06-03T05:41:30.206Z,0.88
2023-06-03T05:43:57.575Z,0.80
2023-06-03T05:46:25.369Z,0.80
2023-06-03T05:48:53.868Z,0.73
2023-06-03T05:51:21.620Z,0.98
2023-06-03T05:53:48.937Z,0.80
2023-06-03T05:56:16.704Z,0.77
2023-06-03T05:58:44.095Z,1.00
2023-06-03T06:01:12.003Z,0.60
2023-06-03T06:03:41.529Z,0.80
2023-06-03T06:06:09.274Z,0.88
2023-06-03T06:08:36.587Z,1.13
2023-06-03T06:11:04.556Z,0.90
2023-06-03T06:13:32.105Z,1.17
2023-06-03T06:16:00.817Z,0.60
2023-06-03T06:18:28.511Z,1.00
2023-06-03T06:20:57.482Z,0.90
2023-06-03T06:23:25.404Z,0.70
2023-06-03T06:25:53.795Z,0.93
2023-06-03T06:28:27.895Z,0.68
2023-06-03T06:30:56.373Z,0.82
2023-06-03T06:33:23.743Z,0.70
2023-06-03T06:35:51.469Z,0.63
2023-06-03T06:38:18.864Z,0.90
2023-06-03T06:40:46.720Z,0.90
2023-06-03T06:43:14.238Z,0.85
2023-06-03T06:45:41.901Z,0.80
2023-06-03T06:48:12.765Z,0.88
2023-06-03T06:50:49.355Z,0.68
2023-06-03T06:53:17.208Z,0.75
2023-06-03T06:55:51.936Z,0.70
2023-06-03T06:58:19.944Z,0.75
2023-06-03T07:00:48.556Z,0.65
2023-06-03T07:03:17.234Z,0.70
2023-06-03T07:05:45.117Z,0.98
2023-06-03T07:08:12.583Z,1.23
2023-06-03T07:10:40.186Z,0.70
2023-06-03T07:13:07.649Z,0.68
2023-06-03T07:15:39.113Z,0.65
2023-06-03T07:18:07.174Z,0.60
2023-06-03T07:20:35.423Z,0.90
2023-06-03T07:23:08.293Z,0.70
2023-06-03T07:25:38.698Z,0.70
2023-06-03T07:28:09.296Z,0.77
2023-06-03T07:30:37.629Z,0.87
2023-06-03T07:33:06.000Z,0.40
2023-06-03T07:35:34.104Z,0.60
2023-06-03T07:38:01.437Z,0.60
2023-06-03T07:40:39.767Z,0.70
2023-06-03T07:43:07.424Z,0.57
2023-06-03T07:45:35.209Z,0.63
2023-06-03T07:48:04.119Z,0.40
2023-06-03T07:50:32.758Z,0.40
2023-06-03T07:53:03.733Z,0.50
2023-06-03T07:55:37.660Z,0.70
2023-06-03T07:58:05.013Z,0.50
2023-06-03T08:00:34.303Z,0.40
2023-06-03T08:03:02.186Z,0.40
2023-06-03T08:05:36.638Z,0.40
2023-06-03T08:08:04.508Z,0.52
2023-06-03T08:10:33.912Z,0.40
2023-06-03T08:13:01.610Z,0.47
2023-06-03T08:15:30.319Z,1.05
2023-06-03T08:17:57.653Z,0.30
2023-06-03T08:20:28.225Z,0.50
2023-06-03T08:22:56.137Z,0.80
2023-06-03T08:25:23.846Z,0.45
2023-06-03T08:27:51.416Z,0.68
2023-06-03T08:30:19.869Z,0.70
2023-06-03T08:32:47.545Z,0.52
2023-06-03T08:35:16.320Z,0.60
2023-06-03T08:37:44.014Z,0.80
2023-06-03T08:40:12.770Z,0.70
2023-06-03T08:42:44.266Z,0.60
2023-06-03T08:45:12.801Z,0.55
2023-06-03T08:47:58.843Z,0.75
2023-06-03T08:50:27.739Z,0.80
2023-06-03T08:52:55.881Z,0.70
2023-06-03T08:55:23.547Z,0.52
2023-06-03T08:58:12.439Z,0.60
2023-06-03T09:00:40.737Z,0.60
2023-06-03T09:03:08.324Z,0.70
2023-06-03T09:05:37.813Z,0.65
2023-06-03T09:08:05.869Z,0.70
2023-06-03T09:10:41.758Z,0.70
2023-06-03T09:13:27.533Z,0.90
2023-06-03T09:16:29.165Z,0.80
2023-06-03T09:19:03.026Z,0.80
2023-06-03T09:21:38.721Z,0.80
2023-06-03T09:24:06.530Z,0.80
2023-06-03T09:26:37.029Z,0.77
2023-06-03T09:29:06.651Z,0.65
2023-06-03T09:31:34.371Z,0.82
2023-06-03T09:34:02.718Z,0.85
2023-06-03T09:36:30.368Z,0.80
2023-06-03T09:38:57.782Z,0.80
2023-06-03T09:41:26.353Z,0.90
2023-06-03T09:44:04.477Z,3.38
2023-06-03T09:46:34.681Z,0.80
2023-06-03T09:49:32.479Z,0.70
2023-06-03T09:52:00.879Z,0.75
2023-06-03T09:54:28.190Z,0.88
2023-06-03T09:57:08.910Z,0.85
2023-06-03T09:59:46.290Z,0.82
2023-06-03T10:02:14.164Z,1.05
2023-06-03T10:04:59.497Z,0.90
2023-06-03T10:07:29.104Z,0.80
2023-06-03T10:10:06.391Z,1.10
2023-06-03T10:12:34.357Z,1.00
2023-06-03T10:15:01.678Z,1.00
2023-06-03T10:17:32.267Z,0.60
2023-06-03T10:20:03.262Z,0.80
2023-06-03T10:22:31.086Z,0.85
2023-06-03T10:24:58.856Z,0.98
2023-06-03T10:27:26.758Z,1.10
2023-06-03T10:29:54.212Z,1.10
2023-06-03T10:32:24.930Z,0.80
2023-06-03T10:34:54.668Z,0.80
2023-06-03T10:37:29.135Z,3.95
2023-06-03T10:40:18.994Z,0.77
2023-06-03T10:43:23.157Z,0.80
2023-06-03T10:45:56.797Z,0.77
2023-06-03T10:48:24.977Z,0.75
2023-06-03T10:51:01.449Z,0.73
2023-06-03T10:53:37.169Z,0.82
2023-06-03T10:56:04.770Z,0.70
2023-06-03T10:58:35.427Z,0.90
2023-06-03T11:01:06.838Z,0.70
2023-06-03T11:04:06.672Z,1.15
2023-06-03T11:06:37.042Z,0.70
2023-06-03T11:09:11.985Z,0.90
2023-06-03T11:11:39.741Z,0.80
2023-06-03T11:14:11.803Z,0.80
2023-06-03T11:16:59.312Z,0.98
2023-06-03T11:19:35.711Z,0.82
2023-06-03T11:22:09.558Z,0.65
2023-06-03T11:24:39.780Z,0.60
2023-06-03T11:27:13.253Z,0.80
2023-06-03T11:29:47.686Z,0.70
2023-06-03T11:32:19.819Z,0.80
2023-06-03T11:34:48.068Z,0.85
2023-06-03T11:37:16.204Z,0.55
2023-06-03T11:40:04.229Z,0.80
2023-06-03T11:42:57.734Z,0.80
2023-06-03T11:45:25.872Z,0.50
2023-06-03T11:48:00.459Z,0.80
2023-06-03T11:53:09.908Z,0.70
2023-06-03T11:55:49.662Z,0.50
2023-06-03T11:58:22.514Z,0.73
2023-06-03T12:01:04.222Z,0.40
2023-06-03T12:03:37.631Z,0.85
2023-06-03T12:06:05.557Z,0.70
2023-06-03T12:08:46.039Z,0.70
2023-06-03T12:11:28.541Z,0.73
2023-06-03T12:13:56.328Z,0.80
2023-06-03T12:16:34.538Z,0.60
2023-06-03T12:19:06.095Z,0.60
2023-06-03T12:21:36.292Z,0.82
2023-06-03T12:24:15.748Z,0.75
2023-06-03T12:26:45.156Z,0.80
2023-06-03T12:29:20.378Z,0.52
2023-06-03T12:32:02.934Z,0.80
2023-06-03T12:38:23.697Z,0.70
2023-06-03T12:40:51.452Z,0.63
2023-06-03T12:43:22.170Z,0.50
2023-06-03T12:45:49.900Z,0.60
2023-06-03T12:48:29.928Z,0.50
2023-06-03T12:50:57.846Z,0.63
2023-06-03T12:53:25.304Z,0.60
2023-06-03T12:55:55.828Z,0.60
2023-06-03T12:58:31.376Z,0.80
2023-06-03T13:00:59.051Z,0.60
2023-06-03T13:03:26.588Z,0.70
2023-06-03T13:05:54.220Z,0.70
2023-06-03T13:08:21.549Z,0.63
2023-06-03T13:10:49.160Z,0.68
2023-06-03T13:13:16.519Z,0.60
2023-06-03T13:15:44.119Z,0.55
2023-06-03T13:18:11.552Z,0.60
2023-06-03T13:20:39.196Z,0.80
2023-06-03T13:23:06.598Z,0.50
2023-06-03T13:25:34.798Z,0.73
2023-06-03T13:28:11.062Z,0.55
2023-06-03T13:30:39.028Z,0.70
2023-06-03T13:33:06.484Z,0.50
2023-06-03T13:35:34.180Z,0.68
2023-06-03T13:38:01.523Z,0.60
2023-06-03T13:40:29.221Z,0.70
2023-06-03T13:42:56.548Z,0.80
2023-06-03T13:45:24.122Z,0.70
2023-06-03T13:47:54.363Z,0.80
2023-06-03T13:50:29.063Z,0.73
2023-06-03T13:52:57.022Z,0.50
2023-06-03T13:55:24.966Z,0.65
2023-06-03T13:57:52.356Z,0.70
2023-06-03T14:00:19.981Z,0.82
2023-06-03T14:02:47.474Z,0.70
2023-06-03T14:05:15.271Z,0.82
2023-06-03T14:07:42.633Z,0.50
2023-06-03T14:10:10.585Z,0.90
2023-06-03T14:12:38.004Z,0.70
2023-06-03T14:15:06.431Z,0.68
2023-06-03T14:17:33.760Z,0.50
2023-06-03T14:20:01.430Z,0.57
2023-06-03T14:22:28.831Z,0.60
2023-06-03T14:24:56.440Z,0.60
2023-06-03T14:27:23.750Z,0.70
2023-06-03T14:29:51.416Z,0.50
2023-06-03T14:32:20.800Z,0.65
2023-06-03T14:34:48.886Z,0.70
2023-06-03T14:37:16.830Z,0.65
2023-06-03T14:39:44.508Z,0.45
2023-06-03T14:42:11.839Z,0.70
2023-06-03T14:44:48.554Z,0.70
2023-06-03T14:47:27.152Z,0.50
2023-06-03T14:49:54.796Z,0.70
2023-06-03T14:52:22.115Z,0.60
2023-06-03T14:54:49.831Z,0.60
2023-06-03T14:57:17.354Z,0.80
2023-06-03T14:59:45.001Z,0.50
2023-06-03T15:02:12.505Z,0.85
2023-06-03T15:04:40.440Z,1.15
2023-06-03T15:07:09.699Z,0.60
2023-06-03T15:09:37.472Z,0.60
2023-06-03T15:12:04.897Z,0.60
2023-06-03T15:14:32.546Z,0.50
2023-06-03T15:16:59.898Z,0.60
2023-06-03T15:19:27.628Z,0.60
2023-06-03T15:21:55.146Z,1.48
2023-06-03T15:24:24.133Z,0.50
2023-06-03T15:26:52.554Z,0.60
2023-06-03T15:29:20.153Z,0.75
2023-06-03T15:31:47.555Z,0.60
2023-06-03T15:34:15.469Z,0.57
2023-06-03T15:36:44.723Z,0.80
2023-06-03T15:39:12.498Z,0.63
2023-06-03T15:41:39.808Z,0.70
2023-06-03T15:44:07.462Z,0.80
2023-06-03T15:46:34.851Z,0.65
2023-06-03T15:49:02.504Z,0.60
2023-06-03T15:51:29.825Z,0.70
2023-06-03T15:53:57.703Z,0.60
2023-06-03T15:56:25.166Z,0.60
2023-06-03T15:58:52.788Z,0.80
2023-06-03T16:01:21.030Z,0.75
2023-06-03T16:03:48.937Z,0.50
2023-06-03T16:06:16.612Z,0.60
2023-06-03T16:08:44.261Z,0.63
2023-06-03T16:11:14.090Z,0.40
2023-06-03T16:13:41.862Z,0.70
2023-06-03T16:16:09.529Z,0.60
2023-06-03T16:18:37.207Z,0.55
2023-06-03T16:21:04.734Z,0.50
2023-06-03T16:23:32.677Z,0.60
2023-06-03T16:26:00.069Z,0.55
2023-06-03T16:28:27.806Z,0.80
2023-06-03T16:30:55.213Z,0.60
2023-06-03T16:33:25.069Z,0.80
2023-06-03T16:35:52.583Z,0.68
2023-06-03T16:38:20.766Z,0.50
2023-06-03T16:40:48.537Z,0.60
2023-06-03T16:43:16.314Z,1.00
2023-06-03T16:45:43.692Z,0.80
2023-06-03T16:48:11.381Z,0.80
2023-06-03T16:50:38.899Z,0.60
2023-06-03T16:53:06.585Z,0.63
2023-06-03T16:55:33.956Z,0.60
2023-06-03T16:58:01.657Z,0.52
2023-06-03T17:00:29.125Z,0.50
2023-06-03T17:02:56.823Z,0.60
2023-06-03T17:05:24.440Z,0.45
2023-06-03T17:07:52.065Z,0.60
2023-06-03T17:10:19.444Z,0.50
2023-06-03T17:12:47.082Z,0.60
2023-06-03T17:15:14.532Z,0.70
2023-06-03T17:17:42.332Z,0.52
2023-06-03T17:20:09.873Z,0.60
2023-06-03T17:22:37.556Z,0.55
2023-06-03T17:25:05.138Z,0.65
2023-06-03T17:27:32.786Z,0.57
2023-06-03T17:30:00.130Z,0.60
2023-06-03T17:32:27.891Z,0.47
2023-06-03T17:34:55.424Z,0.70
2023-06-03T17:37:23.066Z,0.80
2023-06-03T17:39:50.430Z,0.70
2023-06-03T17:42:18.085Z,0.50
2023-06-03T17:44:45.558Z,0.80
2023-06-03T17:47:13.516Z,0.80
2023-06-03T17:49:40.921Z,0.70
2023-06-03T17:52:09.583Z,0.47
2023-06-03T17:54:37.016Z,0.70
2023-06-03T17:57:04.829Z,0.65
2023-06-03T17:59:32.288Z,0.60
2023-06-03T18:01:59.960Z,0.50
2023-06-03T18:04:27.594Z,0.60
2023-06-03T18:06:55.729Z,0.60
2023-06-03T18:09:23.664Z,0.80
2023-06-03T18:11:51.576Z,0.70
2023-06-03T18:14:19.105Z,0.50
2023-06-03T18:16:46.988Z,0.77
2023-06-03T18:19:14.537Z,0.70
2023-06-03T18:21:42.407Z,0.65
2023-06-03T18:24:09.852Z,0.73
2023-06-03T18:26:37.764Z,0.85
2023-06-03T18:29:06.593Z,0.73
2023-06-03T18:31:35.076Z,0.70
2023-06-03T18:34:03.002Z,0.93
2023-06-03T18:36:30.792Z,0.88
2023-06-03T18:38:58.229Z,0.95
2023-06-03T18:41:25.821Z,1.00
2023-06-03T18:43:53.149Z,0.82
2023-06-03T18:46:20.971Z,0.70
2023-06-03T18:48:48.521Z,0.65
2023-06-03T18:51:16.170Z,0.60
2023-06-03T18:53:43.730Z,0.70
2023-06-03T18:56:11.654Z,0.93
2023-06-03T18:58:38.957Z,0.50
2023-06-03T19:01:06.697Z,1.08
2023-06-03T19:03:34.309Z,0.80
2023-06-03T19:06:01.992Z,0.95
2023-06-03T19:08:31.538Z,1.00
2023-06-03T19:10:59.324Z,1.02
2023-06-03T19:13:26.737Z,1.40
2023-06-03T19:15:54.800Z,1.00
2023-06-03T19:18:22.319Z,1.30
2023-06-03T19:20:50.174Z,1.00
2023-06-03T19:23:17.879Z,1.33
2023-06-03T19:25:45.755Z,0.88
2023-06-03T19:28:13.125Z,1.25
2023-06-03T19:30:41.210Z,1.15
2023-06-03T19:33:09.082Z,1.20
2023-06-03T19:35:36.915Z,1.20
2023-06-03T19:38:07.123Z,1.58
2023-06-03T19:40:35.148Z,1.60
2023-06-03T19:43:02.708Z,1.83
2023-06-03T19:45:31.242Z,2.50
2023-06-03T19:47:59.709Z,2.30
2023-06-03T19:50:27.858Z,2.53
2023-06-03T19:52:56.380Z,2.70
2023-06-03T19:55:25.974Z,2.22
2023-06-03T19:57:53.321Z,2.85
2023-06-03T20:00:21.772Z,2.17
2023-06-03T20:02:52.878Z,2.42
2023-06-03T20:05:23.914Z,2.42
2023-06-03T20:07:51.518Z,2.05
2023-06-03T20:10:19.310Z,1.83
2023-06-03T20:12:51.736Z,2.00
2023-06-03T20:15:22.801Z,1.80
2023-06-03T20:17:52.527Z,1.85
2023-06-03T20:20:27.546Z,1.83
2023-06-03T20:22:56.840Z,2.03
2023-06-03T20:25:43.915Z,1.90
2023-06-03T20:28:13.522Z,2.30
2023-06-03T20:30:42.260Z,2.00
2023-06-03T20:33:09.799Z,2.20
2023-06-03T20:35:37.528Z,1.65
2023-06-03T20:38:04.932Z,2.22
2023-06-03T20:40:34.121Z,1.95
2023-06-03T20:43:01.587Z,2.08
2023-06-03T20:45:29.258Z,1.88
2023-06-03T20:47:57.849Z,2.10
2023-06-03T20:50:25.810Z,2.28
2023-06-03T20:52:54.282Z,2.28
2023-06-03T20:55:22.109Z,2.30
2023-06-03T20:57:49.417Z,1.70
2023-06-03T21:00:17.386Z,1.92
2023-06-03T21:02:44.906Z,2.15
2023-06-03T21:05:19.653Z,2.13
2023-06-03T21:07:48.485Z,2.13
2023-06-03T21:10:17.499Z,2.22
2023-06-03T21:12:45.020Z,2.13
2023-06-03T21:15:13.082Z,1.80
2023-06-03T21:17:40.642Z,2.30
2023-06-03T21:20:08.739Z,2.30
2023-06-03T21:22:36.144Z,2.47
2023-06-03T21:25:04.219Z,2.20
2023-06-03T21:27:34.315Z,2.10
2023-06-03T21:30:02.132Z,1.80
2023-06-03T21:32:29.656Z,1.70
2023-06-03T21:34:57.936Z,1.92
2023-06-03T21:37:25.445Z,1.90
2023-06-03T21:39:53.120Z,1.90
2023-06-03T21:42:23.827Z,1.90
2023-06-03T21:45:46.202Z,2.00
2023-06-03T21:48:20.915Z,1.45
2023-06-03T21:50:54.803Z,1.70
2023-06-03T21:56:42.705Z,1.90
2023-06-03T21:59:30.753Z,1.50
2023-06-03T22:02:25.945Z,2.25
2023-06-03T22:07:53.800Z,1.85
2023-06-03T22:14:42.694Z,1.27
2023-06-03T22:17:14.153Z,1.65
2023-06-03T22:20:30.590Z,1.90
2023-06-03T22:23:09.841Z,1.63
2023-06-03T22:25:55.156Z,1.73
2023-06-03T22:28:29.574Z,1.60
2023-06-03T22:31:00.177Z,1.65
2023-06-03T22:33:27.857Z,1.60
2023-06-03T22:35:58.321Z,1.60
2023-06-03T22:38:27.496Z,1.60
2023-06-03T22:40:54.877Z,2.05
2023-06-03T22:43:22.886Z,1.70
2023-06-03T22:45:50.303Z,1.60
2023-06-03T22:48:18.729Z,2.05
2023-06-03T22:50:46.252Z,1.55
2023-06-03T22:53:13.977Z,1.60
2023-06-03T22:55:41.520Z,1.50
2023-06-03T22:58:22.579Z,1.77
2023-06-03T23:00:50.032Z,1.70
2023-06-03T23:03:17.851Z,1.40
2023-06-03T23:05:45.324Z,1.65
2023-06-03T23:08:13.294Z,1.70
2023-06-03T23:10:51.566Z,1.70
2023-06-03T23:13:22.936Z,1.50
2023-06-03T23:15:54.389Z,1.90
2023-06-03T23:18:22.441Z,1.75
2023-06-03T23:20:49.850Z,1.67
2023-06-03T23:23:17.628Z,1.58
2023-06-03T23:25:47.449Z,1.60
2023-06-03T23:28:15.102Z,1.95
2023-06-03T23:30:42.436Z,1.98
2023-06-03T23:33:21.839Z,2.10
2023-06-03T23:36:04.806Z,2.13
2023-06-03T23:38:40.152Z,1.95
2023-06-03T23:41:07.751Z,1.85
2023-06-03T23:43:35.754Z,1.77
2023-06-03T23:46:05.506Z,1.65
2023-06-03T23:48:33.339Z,1.83
2023-06-03T23:51:03.430Z,2.03
2023-06-03T23:53:31.092Z,1.75
2023-06-03T23:56:00.263Z,1.40
2023-06-03T23:58:29.656Z,1.83
